createdAt,value
2018-12-10T00:01:09.110Z,6.50
2018-12-10T00:03:37.965Z,6.60
2018-12-10T00:06:06.448Z,6.60
2018-12-10T00:08:34.873Z,6.60
2018-12-10T00:11:03.637Z,6.60
2018-12-10T00:13:32.172Z,6.70
2018-12-10T00:16:01.183Z,6.70
2018-12-10T00:18:29.784Z,6.80
2018-12-10T00:20:58.263Z,6.70
2018-12-10T00:23:26.994Z,6.80
2018-12-10T00:25:55.584Z,6.80
2018-12-10T00:28:24.715Z,6.80
2018-12-10T00:30:53.315Z,6.80
2018-12-10T00:33:21.870Z,6.80
2018-12-10T00:35:50.734Z,6.90
2018-12-10T00:38:19.377Z,6.90
2018-12-10T00:40:47.870Z,6.90
2018-12-10T00:43:16.277Z,6.90
2018-12-10T00:45:45.390Z,6.90
2018-12-10T00:48:16.908Z,6.90
2018-12-10T00:50:45.695Z,6.80
2018-12-10T00:53:14.752Z,6.90
2018-12-10T00:55:43.163Z,6.90
2018-12-10T00:58:11.816Z,6.90
2018-12-10T01:00:40.165Z,7.00
2018-12-10T01:03:08.864Z,7.00
2018-12-10T01:05:37.780Z,7.10
2018-12-10T01:08:06.429Z,7.10
2018-12-10T01:10:34.866Z,7.00
2018-12-10T01:13:03.325Z,6.90
2018-12-10T01:15:31.739Z,6.80
2018-12-10T01:18:00.237Z,6.80
2018-12-10T01:20:28.715Z,6.80
2018-12-10T01:22:57.100Z,6.80
2018-12-10T01:25:25.991Z,6.80
2018-12-10T01:27:54.328Z,6.70
2018-12-10T01:30:23.248Z,6.70
2018-12-10T01:32:52.034Z,6.70
2018-12-10T01:35:20.560Z,6.70
2018-12-10T01:37:49.054Z,6.70
2018-12-10T01:40:17.875Z,6.70
2018-12-10T01:42:46.787Z,6.70
2018-12-10T01:45:15.163Z,6.70
2018-12-10T01:47:43.955Z,6.70
2018-12-10T01:50:12.396Z,6.70
2018-12-10T01:52:40.863Z,6.80
2018-12-10T01:55:09.276Z,6.80
2018-12-10T01:57:37.788Z,6.80
2018-12-10T02:00:07.880Z,6.80
2018-12-10T02:02:36.804Z,6.80
2018-12-10T02:05:05.644Z,6.80
2018-12-10T02:07:34.141Z,6.80
2018-12-10T02:10:03.189Z,6.80
2018-12-10T02:12:32.118Z,6.80
2018-12-10T02:15:00.579Z,6.80
2018-12-10T02:17:29.406Z,6.90
2018-12-10T02:19:57.840Z,6.90
2018-12-10T02:22:26.732Z,6.90
2018-12-10T02:24:55.752Z,6.90
2018-12-10T02:27:24.555Z,6.80
2018-12-10T02:29:53.001Z,6.90
2018-12-10T02:32:21.575Z,6.80
2018-12-10T02:34:50.464Z,6.80
2018-12-10T02:37:19.003Z,6.80
2018-12-10T02:39:47.983Z,6.80
2018-12-10T02:42:16.927Z,6.80
2018-12-10T02:44:47.584Z,6.80
2018-12-10T02:47:16.777Z,6.90
2018-12-10T02:49:45.254Z,6.80
2018-12-10T02:52:13.746Z,6.90
2018-12-10T02:54:42.463Z,6.90
2018-12-10T02:57:11.492Z,6.90
2018-12-10T02:59:40.366Z,6.80
2018-12-10T03:02:08.776Z,6.80
2018-12-10T03:04:37.902Z,6.70
2018-12-10T03:07:06.492Z,6.70
2018-12-10T03:09:34.883Z,6.70
2018-12-10T03:12:03.673Z,6.70
2018-12-10T03:14:32.636Z,6.90
2018-12-10T03:17:01.900Z,6.90
2018-12-10T03:19:31.205Z,6.90
2018-12-10T03:21:59.819Z,6.80
2018-12-10T03:24:28.754Z,6.70
2018-12-10T03:26:57.398Z,6.70
2018-12-10T03:29:25.830Z,6.70
2018-12-10T03:31:55.146Z,6.70
2018-12-10T03:34:23.968Z,6.60
2018-12-10T03:36:52.711Z,6.60
2018-12-10T03:39:21.997Z,6.60
2018-12-10T03:41:51.044Z,6.50
2018-12-10T03:44:19.846Z,6.50
2018-12-10T03:46:48.689Z,6.50
2018-12-10T03:49:17.200Z,6.40
2018-12-10T03:51:45.770Z,6.40
2018-12-10T03:54:14.599Z,6.40
2018-12-10T03:56:43.439Z,6.40
2018-12-10T03:59:11.918Z,6.30
2018-12-10T04:01:40.722Z,6.40
2018-12-10T04:04:10.488Z,6.40
2018-12-10T04:06:39.242Z,6.40
2018-12-10T04:09:08.926Z,6.50
2018-12-10T04:11:37.388Z,6.50
2018-12-10T04:14:05.947Z,6.50
2018-12-10T04:16:34.609Z,6.50
2018-12-10T04:19:03.262Z,6.50
2018-12-10T04:21:31.985Z,6.50
2018-12-10T04:24:00.706Z,6.50
2018-12-10T04:26:29.365Z,6.50
2018-12-10T04:28:57.844Z,6.50
2018-12-10T04:31:26.564Z,6.50
2018-12-10T04:33:54.942Z,6.50
2018-12-10T04:36:23.649Z,6.40
2018-12-10T04:38:52.398Z,6.40
2018-12-10T04:41:21.225Z,6.40
2018-12-10T04:43:50.131Z,6.40
2018-12-10T04:46:18.931Z,6.40
2018-12-10T04:48:47.357Z,6.40
2018-12-10T04:51:15.842Z,6.50
2018-12-10T04:53:44.878Z,6.50
2018-12-10T04:56:13.533Z,6.60
2018-12-10T04:58:42.390Z,6.70
2018-12-10T05:01:11.017Z,6.70
2018-12-10T05:03:39.615Z,6.70
2018-12-10T05:06:08.206Z,6.80
2018-12-10T05:08:42.980Z,6.80
2018-12-10T05:11:11.409Z,6.70
2018-12-10T05:13:40.139Z,6.70
2018-12-10T05:16:09.294Z,6.70
2018-12-10T05:18:38.287Z,6.60
2018-12-10T05:21:07.035Z,6.60
2018-12-10T05:23:35.445Z,6.50
2018-12-10T05:26:04.022Z,6.50
2018-12-10T05:28:32.646Z,6.60
2018-12-10T05:31:01.490Z,6.60
2018-12-10T05:33:30.038Z,6.50
2018-12-10T05:35:58.460Z,6.50
2018-12-10T05:38:27.933Z,6.50
2018-12-10T05:40:56.308Z,6.50
2018-12-10T05:43:25.131Z,6.70
2018-12-10T05:45:55.606Z,6.70
2018-12-10T05:48:24.289Z,6.70
2018-12-10T05:50:54.222Z,6.70
2018-12-10T05:53:24.677Z,6.70
2018-12-10T05:55:54.943Z,6.60
2018-12-10T05:58:24.277Z,6.60
2018-12-10T06:00:53.350Z,6.50
2018-12-10T06:03:22.394Z,6.50
2018-12-10T06:05:51.404Z,6.40
2018-12-10T06:08:20.162Z,6.40
2018-12-10T06:10:48.824Z,6.40
2018-12-10T06:13:17.469Z,6.30
2018-12-10T06:15:46.107Z,6.40
2018-12-10T06:18:15.331Z,6.50
2018-12-10T06:20:44.045Z,6.50
2018-12-10T06:23:13.270Z,6.50
2018-12-10T06:25:41.964Z,6.50
2018-12-10T06:28:13.534Z,6.40
2018-12-10T06:30:42.218Z,6.40
2018-12-10T06:33:11.612Z,6.30
2018-12-10T06:35:40.608Z,6.30
2018-12-10T06:38:09.295Z,6.30
2018-12-10T06:40:38.121Z,6.30
2018-12-10T06:43:07.616Z,6.30
2018-12-10T06:45:38.199Z,6.20
2018-12-10T06:48:07.680Z,6.20
2018-12-10T06:50:36.315Z,6.10
2018-12-10T06:53:04.996Z,6.00
2018-12-10T06:55:33.844Z,6.00
2018-12-10T06:58:02.578Z,5.90
2018-12-10T07:00:31.162Z,5.90
2018-12-10T07:03:00.013Z,5.80
2018-12-10T07:05:29.784Z,5.70
2018-12-10T07:07:58.947Z,5.90
2018-12-10T07:10:28.165Z,6.00
2018-12-10T07:12:57.075Z,6.20
2018-12-10T07:15:26.440Z,6.20
2018-12-10T07:17:55.259Z,6.20
2018-12-10T07:20:24.381Z,6.20
2018-12-10T07:22:53.628Z,6.30
2018-12-10T07:25:22.349Z,6.20
2018-12-10T07:27:51.004Z,6.20
2018-12-10T07:30:19.838Z,6.10
2018-12-10T07:32:48.597Z,6.10
2018-12-10T07:35:18.136Z,6.00
2018-12-10T07:37:47.465Z,5.90
2018-12-10T07:40:16.717Z,5.80
2018-12-10T07:42:45.531Z,5.70
2018-12-10T07:45:14.830Z,5.70
2018-12-10T07:47:43.880Z,5.70
2018-12-10T07:50:13.062Z,5.70
2018-12-10T07:52:42.214Z,5.80
2018-12-10T07:55:11.143Z,5.90
2018-12-10T07:57:40.702Z,6.00
2018-12-10T08:00:09.937Z,6.20
2018-12-10T08:02:39.193Z,6.40
2018-12-10T08:05:12.263Z,6.50
2018-12-10T08:07:39.917Z,6.50
2018-12-10T08:10:09.612Z,6.60
2018-12-10T08:12:38.721Z,6.60
2018-12-10T08:15:07.882Z,6.60
2018-12-10T08:17:36.503Z,6.60
2018-12-10T08:20:05.885Z,6.70
2018-12-10T08:22:34.833Z,6.90
2018-12-10T08:25:03.946Z,7.00
2018-12-10T08:27:33.053Z,7.00
2018-12-10T08:30:01.728Z,6.90
2018-12-10T08:32:30.815Z,6.80
2018-12-10T08:34:59.577Z,6.80
2018-12-10T08:37:28.845Z,6.70
2018-12-10T08:39:57.843Z,6.60
2018-12-10T08:42:27.019Z,6.70
2018-12-10T08:44:55.658Z,6.80
2018-12-10T08:47:24.290Z,7.00
2018-12-10T08:49:53.577Z,7.00
2018-12-10T08:52:22.056Z,7.00
2018-12-10T08:54:50.822Z,7.00
2018-12-10T08:57:20.085Z,7.00
2018-12-10T08:59:48.529Z,7.00
2018-12-10T09:02:17.159Z,7.00
2018-12-10T09:04:45.723Z,7.10
2018-12-10T09:07:14.189Z,7.20
2018-12-10T09:09:43.987Z,7.20
2018-12-10T09:12:12.887Z,7.10
2018-12-10T09:14:41.400Z,7.10
2018-12-10T09:17:10.222Z,7.00
2018-12-10T09:19:38.693Z,6.90
2018-12-10T09:22:07.217Z,6.80
2018-12-10T09:24:36.060Z,6.80
2018-12-10T09:27:05.121Z,6.80
2018-12-10T09:29:33.957Z,6.80
2018-12-10T09:32:02.785Z,6.90
2018-12-10T09:34:31.283Z,7.10
2018-12-10T09:36:59.691Z,7.30
2018-12-10T09:39:30.229Z,7.40
2018-12-10T09:41:59.475Z,7.50
2018-12-10T09:44:28.304Z,7.60
2018-12-10T09:46:59.012Z,7.70
2018-12-10T09:49:27.879Z,7.60
2018-12-10T09:51:56.568Z,7.40
2018-12-10T09:54:25.077Z,7.20
2018-12-10T09:56:53.485Z,7.00
2018-12-10T09:59:22.044Z,6.90
2018-12-10T10:01:50.537Z,6.90
2018-12-10T10:04:19.394Z,7.00
2018-12-10T10:06:48.504Z,7.10
2018-12-10T10:09:17.590Z,7.20
2018-12-10T10:11:46.176Z,7.20
2018-12-10T10:14:15.021Z,7.30
2018-12-10T10:16:44.149Z,7.20
2018-12-10T10:19:12.679Z,7.30
2018-12-10T10:21:41.179Z,7.20
2018-12-10T10:24:09.938Z,7.30
2018-12-10T10:26:38.400Z,7.30
2018-12-10T10:29:06.977Z,7.30
2018-12-10T10:31:35.468Z,7.30
2018-12-10T10:34:04.862Z,7.20
2018-12-10T10:36:34.274Z,7.20
2018-12-10T10:39:02.967Z,7.20
2018-12-10T10:41:32.431Z,7.20
2018-12-10T10:44:02.047Z,7.10
2018-12-10T10:46:30.950Z,7.10
2018-12-10T10:48:59.447Z,7.10
2018-12-10T10:51:28.097Z,7.10
2018-12-10T10:53:57.187Z,7.20
2018-12-10T10:56:25.881Z,7.20
2018-12-10T10:58:54.282Z,7.30
2018-12-10T11:01:26.259Z,7.50
2018-12-10T11:03:55.466Z,7.70
2018-12-10T11:06:24.053Z,7.80
2018-12-10T11:08:53.027Z,7.80
2018-12-10T11:11:22.077Z,7.70
2018-12-10T11:13:50.545Z,7.70
2018-12-10T11:16:19.785Z,7.60
2018-12-10T11:18:48.571Z,7.80
2018-12-10T11:21:17.348Z,7.80
2018-12-10T11:23:46.261Z,7.90
2018-12-10T11:26:15.525Z,7.80
2018-12-10T11:28:44.018Z,7.80
2018-12-10T11:31:17.160Z,7.70
2018-12-10T11:33:43.500Z,7.70
2018-12-10T11:36:13.313Z,7.70
2018-12-10T11:38:48.437Z,7.70
2018-12-10T11:41:17.068Z,7.80
2018-12-10T11:43:45.868Z,7.80
2018-12-10T11:46:14.339Z,7.90
2018-12-10T11:48:42.952Z,8.00
2018-12-10T11:51:11.593Z,8.00
2018-12-10T11:53:46.732Z,8.10
2018-12-10T11:56:15.287Z,8.20
2018-12-10T11:58:43.870Z,8.20
2018-12-10T12:01:12.445Z,8.10
2018-12-10T12:03:40.977Z,8.10
2018-12-10T12:06:09.703Z,8.20
2018-12-10T12:08:38.337Z,8.20
2018-12-10T12:11:06.758Z,8.20
2018-12-10T12:13:35.824Z,8.20
2018-12-10T12:16:04.411Z,8.30
2018-12-10T12:18:33.790Z,8.30
2018-12-10T12:21:02.251Z,8.20
2018-12-10T12:23:31.928Z,8.10
2018-12-10T12:26:00.973Z,8.10
2018-12-10T12:28:30.177Z,8.10
2018-12-10T12:30:59.012Z,8.20
2018-12-10T12:33:27.675Z,8.30
2018-12-10T12:35:56.444Z,8.30
2018-12-10T12:38:24.992Z,8.30
2018-12-10T12:40:53.658Z,8.30
2018-12-10T12:43:22.533Z,8.30
2018-12-10T12:45:51.581Z,8.20
2018-12-10T12:48:20.114Z,8.20
2018-12-10T12:50:48.614Z,8.10
2018-12-10T12:53:17.075Z,8.00
2018-12-10T12:55:45.982Z,7.90
2018-12-10T12:58:14.450Z,7.80
2018-12-10T13:00:44.087Z,7.80
2018-12-10T13:03:12.641Z,7.80
2018-12-10T13:05:41.249Z,7.80
2018-12-10T13:08:09.875Z,7.90
2018-12-10T13:10:38.645Z,8.00
2018-12-10T13:13:07.217Z,8.00
2018-12-10T13:15:36.309Z,8.00
2018-12-10T13:18:04.674Z,8.00
2018-12-10T13:20:33.151Z,8.10
2018-12-10T13:23:02.256Z,8.00
2018-12-10T13:25:30.757Z,7.90
2018-12-10T13:27:59.360Z,7.90
2018-12-10T13:30:28.607Z,7.90
2018-12-10T13:32:57.229Z,7.90
2018-12-10T13:35:26.283Z,7.90
2018-12-10T13:37:55.694Z,7.90
2018-12-10T13:40:24.871Z,7.90
2018-12-10T13:42:53.395Z,8.00
2018-12-10T13:45:22.437Z,8.10
2018-12-10T13:47:52.129Z,8.20
2018-12-10T13:50:20.805Z,8.30
2018-12-10T13:52:49.374Z,8.40
2018-12-10T13:55:18.040Z,8.40
2018-12-10T13:57:46.717Z,8.30
2018-12-10T14:00:15.227Z,8.20
2018-12-10T14:02:43.665Z,8.10
2018-12-10T14:05:14.808Z,8.10
2018-12-10T14:07:47.962Z,8.00
2018-12-10T14:10:14.279Z,7.90
2018-12-10T14:12:43.897Z,7.90
2018-12-10T14:15:12.757Z,7.80
2018-12-10T14:17:41.435Z,7.70
2018-12-10T14:20:10.706Z,7.70
2018-12-10T14:22:39.710Z,7.70
2018-12-10T14:25:14.695Z,7.60
2018-12-10T14:27:43.703Z,7.60
2018-12-10T14:30:12.334Z,7.60
2018-12-10T14:32:40.963Z,7.60
2018-12-10T14:35:09.556Z,7.60
2018-12-10T14:37:39.294Z,7.60
2018-12-10T14:40:08.105Z,7.60
2018-12-10T14:42:46.599Z,7.60
2018-12-10T14:45:15.019Z,7.60
2018-12-10T14:47:43.918Z,7.60
2018-12-10T14:50:12.904Z,7.50
2018-12-10T14:52:41.860Z,7.50
2018-12-10T14:55:10.660Z,7.50
2018-12-10T14:57:39.355Z,7.40
2018-12-10T15:00:09.880Z,7.40
2018-12-10T15:02:38.787Z,7.40
2018-12-10T15:05:09.043Z,7.40
2018-12-10T15:07:37.691Z,7.30
2018-12-10T15:10:08.536Z,7.30
2018-12-10T15:12:37.718Z,7.30
2018-12-10T15:15:09.008Z,7.20
2018-12-10T15:17:37.656Z,7.20
2018-12-10T15:20:11.592Z,7.10
2018-12-10T15:22:41.507Z,7.10
2018-12-10T15:25:10.741Z,7.20
2018-12-10T15:27:40.005Z,7.20
2018-12-10T15:30:11.068Z,7.20
2018-12-10T15:32:39.989Z,7.10
2018-12-10T15:35:09.778Z,7.00
2018-12-10T15:37:38.761Z,6.90
2018-12-10T15:40:08.109Z,6.90
2018-12-10T15:42:36.603Z,6.90
2018-12-10T15:45:07.061Z,7.00
2018-12-10T15:47:35.822Z,7.00
2018-12-10T15:50:04.922Z,7.00
2018-12-10T15:52:33.311Z,7.00
2018-12-10T15:55:06.264Z,7.00
2018-12-10T15:57:34.737Z,7.00
2018-12-10T16:00:04.039Z,6.90
2018-12-10T16:02:32.455Z,7.00
2018-12-10T16:05:00.869Z,7.00
2018-12-10T16:07:29.267Z,6.90
2018-12-10T16:09:58.080Z,7.00
2018-12-10T16:12:27.104Z,6.90
2018-12-10T16:14:55.512Z,6.90
2018-12-10T16:17:24.183Z,6.80
2018-12-10T16:19:52.667Z,6.80
2018-12-10T16:22:21.251Z,6.80
2018-12-10T16:24:50.002Z,6.80
2018-12-10T16:27:19.169Z,6.80
2018-12-10T16:29:47.922Z,6.90
2018-12-10T16:32:16.590Z,6.90
2018-12-10T16:34:45.810Z,6.80
2018-12-10T16:37:14.599Z,6.70
2018-12-10T16:39:43.874Z,6.60
2018-12-10T16:42:13.144Z,6.50
2018-12-10T16:44:41.632Z,6.50
2018-12-10T16:47:10.033Z,6.50
2018-12-10T16:49:38.667Z,6.40
2018-12-10T16:52:07.765Z,6.40
2018-12-10T16:54:38.903Z,6.40
2018-12-10T16:57:07.490Z,6.40
2018-12-10T16:59:36.678Z,6.30
2018-12-10T17:02:05.303Z,6.30
2018-12-10T17:04:33.747Z,6.20
2018-12-10T17:07:02.358Z,6.30
2018-12-10T17:09:31.352Z,6.40
2018-12-10T17:12:00.252Z,6.40
2018-12-10T17:14:29.107Z,6.40
2018-12-10T17:16:57.741Z,6.40
2018-12-10T17:19:26.566Z,6.40
2018-12-10T17:21:55.271Z,6.40
2018-12-10T17:24:23.759Z,6.40
2018-12-10T17:26:52.843Z,6.40
2018-12-10T17:29:21.461Z,6.30
2018-12-10T17:31:50.191Z,6.30
2018-12-10T17:34:19.140Z,6.30
2018-12-10T17:36:47.974Z,6.40
2018-12-10T17:39:16.506Z,6.40
2018-12-10T17:41:45.094Z,6.40
2018-12-10T17:44:13.622Z,6.40
2018-12-10T17:46:42.807Z,6.30
2018-12-10T17:49:11.724Z,6.30
2018-12-10T17:51:40.791Z,6.30
2018-12-10T17:54:09.592Z,6.30
2018-12-10T17:56:38.867Z,6.30
2018-12-10T17:59:07.681Z,6.30
2018-12-10T18:01:36.546Z,6.30
2018-12-10T18:04:06.010Z,6.30
2018-12-10T18:06:34.432Z,6.20
2018-12-10T18:09:03.131Z,6.20
2018-12-10T18:11:32.380Z,6.20
2018-12-10T18:14:01.365Z,6.20
2018-12-10T18:16:30.213Z,6.10
2018-12-10T18:18:59.709Z,6.10
2018-12-10T18:21:29.618Z,6.10
2018-12-10T18:24:02.197Z,6.10
2018-12-10T18:26:30.699Z,6.10
2018-12-10T18:28:59.264Z,6.10
2018-12-10T18:31:28.224Z,6.10
2018-12-10T18:33:56.847Z,6.10
2018-12-10T18:36:25.229Z,6.10
2018-12-10T18:38:54.068Z,6.00
2018-12-10T18:41:22.606Z,6.00
2018-12-10T18:43:51.305Z,6.10
2018-12-10T18:46:30.931Z,6.10
2018-12-10T18:51:47.918Z,6.20
2018-12-10T18:54:18.207Z,6.20
2018-12-10T18:56:46.826Z,6.20
2018-12-10T18:59:15.874Z,6.20
2018-12-10T19:01:45.021Z,6.30
2018-12-10T19:04:13.582Z,6.30
2018-12-10T19:06:42.484Z,6.40
2018-12-10T19:09:12.184Z,6.30
2018-12-10T19:11:41.139Z,6.20
2018-12-10T19:14:09.768Z,6.20
2018-12-10T19:16:39.027Z,6.20
2018-12-10T19:19:08.789Z,6.20
2018-12-10T19:21:37.829Z,6.10
2018-12-10T19:24:06.913Z,6.10
2018-12-10T19:26:36.811Z,6.10
2018-12-10T19:29:05.920Z,6.10
2018-12-10T19:31:35.548Z,6.10
2018-12-10T19:34:04.849Z,6.00
2018-12-10T19:36:34.918Z,6.00
2018-12-10T19:39:05.438Z,6.00
2018-12-10T19:41:34.382Z,6.00
2018-12-10T19:44:03.947Z,6.00
2018-12-10T19:46:32.523Z,6.00
2018-12-10T19:49:01.443Z,6.00
2018-12-10T19:51:30.715Z,6.00
2018-12-10T19:53:59.197Z,6.00
2018-12-10T19:56:27.983Z,5.90
2018-12-10T19:58:57.158Z,5.90
2018-12-10T20:01:26.309Z,5.90
2018-12-10T20:03:56.219Z,5.90
2018-12-10T20:06:32.004Z,5.90
2018-12-10T20:09:01.801Z,5.90
2018-12-10T20:11:30.677Z,5.90
2018-12-10T20:13:59.665Z,5.90
2018-12-10T20:16:29.840Z,5.90
2018-12-10T20:18:59.089Z,5.90
2018-12-10T20:21:28.055Z,5.90
2018-12-10T20:23:59.115Z,5.90
2018-12-10T20:26:28.290Z,5.90
2018-12-10T20:28:57.052Z,5.90
2018-12-10T20:31:26.288Z,6.00
2018-12-10T20:33:55.357Z,5.90
2018-12-10T20:36:24.536Z,6.00
2018-12-10T20:38:53.246Z,5.90
2018-12-10T20:41:21.722Z,5.90
2018-12-10T20:43:50.694Z,5.90
2018-12-10T20:46:19.310Z,5.90
2018-12-10T20:48:47.957Z,5.90
2018-12-10T20:51:16.663Z,6.00
2018-12-10T20:53:45.289Z,6.00
2018-12-10T20:56:14.504Z,6.00
2018-12-10T20:58:43.686Z,6.00
2018-12-10T21:01:12.380Z,6.00
2018-12-10T21:03:40.958Z,6.10
2018-12-10T21:06:15.080Z,6.10
2018-12-10T21:08:43.775Z,6.10
2018-12-10T21:11:13.120Z,6.10
2018-12-10T21:13:41.812Z,6.00
2018-12-10T21:16:12.629Z,5.90
2018-12-10T21:18:41.129Z,5.90
2018-12-10T21:21:09.626Z,5.80
2018-12-10T21:23:38.331Z,5.80
2018-12-10T21:26:07.028Z,5.80
2018-12-10T21:28:38.807Z,5.80
2018-12-10T21:31:08.575Z,5.80
2018-12-10T21:33:37.016Z,5.80
2018-12-10T21:36:06.524Z,5.80
2018-12-10T21:38:35.266Z,5.80
2018-12-10T21:41:04.157Z,5.80
2018-12-10T21:43:32.974Z,5.80
2018-12-10T21:46:02.004Z,5.90
2018-12-10T21:48:30.648Z,5.90
2018-12-10T21:50:59.831Z,5.90
2018-12-10T21:53:28.369Z,5.90
2018-12-10T21:55:57.113Z,5.90
2018-12-10T21:58:25.891Z,5.90
2018-12-10T22:00:54.571Z,6.00
2018-12-10T22:03:23.742Z,6.10
2018-12-10T22:05:52.602Z,6.10
2018-12-10T22:08:21.505Z,6.10
2018-12-10T22:10:50.034Z,6.10
2018-12-10T22:13:25.174Z,6.00
2018-12-10T22:15:54.810Z,6.00
2018-12-10T22:18:23.991Z,5.90
2018-12-10T22:20:53.136Z,5.80
2018-12-10T22:23:21.609Z,5.80
2018-12-10T22:25:50.591Z,5.70
2018-12-10T22:28:21.487Z,5.70
2018-12-10T22:30:51.243Z,5.60
2018-12-10T22:33:20.459Z,5.60
2018-12-10T22:35:49.969Z,5.60
2018-12-10T22:38:18.904Z,5.60
2018-12-10T22:40:47.281Z,5.60
2018-12-10T22:43:15.803Z,5.60
2018-12-10T22:45:44.205Z,5.70
2018-12-10T22:48:12.966Z,5.70
2018-12-10T22:50:41.977Z,5.70
2018-12-10T22:53:10.590Z,5.70
2018-12-10T22:55:39.161Z,5.70
2018-12-10T22:58:07.655Z,5.70
2018-12-10T23:00:42.735Z,5.80
2018-12-10T23:03:11.480Z,5.80
2018-12-10T23:05:40.572Z,5.90
2018-12-10T23:08:08.961Z,5.90
2018-12-10T23:10:38.150Z,5.80
2018-12-10T23:13:06.997Z,5.80
2018-12-10T23:15:35.587Z,5.90
2018-12-10T23:18:04.656Z,5.80
2018-12-10T23:20:33.192Z,5.80
2018-12-10T23:23:02.010Z,5.80
2018-12-10T23:25:31.092Z,5.80
2018-12-10T23:27:59.734Z,5.80
2018-12-10T23:30:28.315Z,5.80
2018-12-10T23:32:56.709Z,5.80
2018-12-10T23:35:25.205Z,5.70
2018-12-10T23:37:54.256Z,5.70
2018-12-10T23:40:22.897Z,5.60
2018-12-10T23:42:56.870Z,5.60
2018-12-10T23:45:25.214Z,5.60
2018-12-10T23:47:53.820Z,5.60
2018-12-10T23:50:22.457Z,5.50
2018-12-10T23:52:52.574Z,5.50
2018-12-10T23:55:22.927Z,5.60
2018-12-10T23:57:51.671Z,5.60
